Pagina principale
METAR-TAF:

METAR-TAF

Aeroporti :

Base aerea di Aviano

Aviano, Italia

latitudine: 46-02N, longitudine: 012-36E, altezza: 128 m

Osservazione

Il bollettino è stato emesso 26 minuti fa, alle 17:55 UTC
Vento 5 kt da est/nord-est
Temperature 18°C
Umidità 88%
Pressione 1006 hPa
Visibilità 10 km o più
Poco nuvoloso ad un'altezza di 3000 ft
Nuvoloso ad un'altezza di 7000 ft

METAR: LIPA 301755Z 06005KT 9999 FEW030 BKN070 18/16 Q1006

Ora: 20:21 (18:21 UTC)

Previsione

Il bollettino è stato emesso 1 ora e 21 minuti fa, alle 17:00 UTC
Previsione valida dal 30 alle 18 UTC al 31 alle 03 UTC
Vento 5 kt da nord-est
Visibilità 10 km o più
Poco nuvoloso ad un'altezza di 3000 ft
Nuvoloso ad un'altezza di 6000 ft
Temporaneamente
dal 30 alle 18 UTC al 31 alle 02 UTC
Visibilità: 5000 m
Poco nuvoloso ad un'altezza di 1500 ft, Cumulonembo.
temporale, pioggia,

TAF: LIPA 301700Z 3018/3103 05005KT 9999 FEW030 BKN060 TEMPO 3018/3102 5000 TSRA FEW015CB

Osservazioni e previsioni meteorologiche di più di 4000 aeroporti (messaggi METAR e TAF).

Le stazioni disponibili sono rappresentate dai dischi gialli e rossi sulla carta.

Puntare il mouse per vedere il nome della stazione.

Clicca sopra per visualizzare le osservazioni e previsioni meteorologiche.

Per cambiare la mappa : fare clic sui pulsanti verdi con una croce nera per ingrandire, il pulsante verde con un trattino per diminuire, o sulla freccia verde per le mappe adiacenti.


METAR-TAF: